Thursday, March 23, 2017, 12:19 AM EDT
Back to Local

KMTP, Montauk Airport

Location: Montauk, NY, United States Lat: 41.067
Local Time: 12:19 AM EDT ( 4:19 GMT) Lon: -71.917
Time Zone: US/Eastern Elev: 6 ft

Show me the last for .
Show Coded

Time T Td Feel RH Dir Speed Gust Alt SLP Vis Weather Sky Remarks
2017-03-22 23:54 25 -1 10 31 310° 16 23 30.37 30.37 0 Peak wind: 29 mph (26 kts) from 330° at 03 min
2017-03-22 22:54 26 -3 10 27 320° 16 30 30.35 30.34 0 Peak wind: 33 mph (29 kts) from 320° at 59 min
2017-03-22 21:54 27 -1 11 29 320° 16 30 30.32 30.32 0 Peak wind: 29 mph (26 kts) from 310° at 35 min
2017-03-22 20:54 27 1 11 31 320° 20 29 30.29 30.29 0 Peak wind: 31 mph (27 kts) from 300° at 23 min
2017-03-22 19:54 29 2 13 30 310° 20 30 30.25 30.25 0 Peak wind: 31 mph (27 kts) from 310° at 06 min
Pressure rising rapidly
6-hr Min Temp (8pm): 28.0°F
6-hr Max Temp (8pm): 35.1°F
2017-03-22 18:54 29 2 14 30 310° 18 29 30.21 30.21 0 Peak wind: 33 mph (29 kts) from 330° at 36 min
Pressure rising rapidly
2017-03-22 17:54 31 3 16 29 310° 21 30 30.16 30.16 0 Peak wind: 34 mph (30 kts) from 300° at 19 min
2017-03-22 16:54 33 4 19 28 320° 21 30 30.12 30.12 0 Peak wind: 34 mph (30 kts) from 330° at 38 min
2017-03-22 15:54 34 3 20 26 310° 20 32 30.09 30.09 0 Peak wind: 34 mph (30 kts) from 310° at 55 min
2017-03-22 14:54 34 4 19 27 300° 22 35 30.07 30.07 0 Peak wind: 34 mph (30 kts) from 300° at 54 min
2017-03-22 13:54 35 4 20 26 310° 22 41 30.05 30.05 0 Peak wind: 41 mph (36 kts) from 300° at 48 min
6-hr Min Temp (2pm): 35.1°F
6-hr Max Temp (2pm): 41.0°F
2017-03-22 12:54 35 3 21 25 300° 18 35 30.04 30.03 0 Peak wind: 36 mph (32 kts) from 300° at 55 min
2017-03-22 11:54 36 10 22 33 300° 24 37 30.01 30.00 0 Peak wind: 39 mph (34 kts) from 310° at 56 min
2017-03-22 10:54 36 11 22 34 310° 24 38 29.97 29.97 0 Peak wind: 37 mph (33 kts) from 310° at 51 min
2017-03-22 09:54 37 21 24 51 310° 21 31 29.95 29.94 0 Peak wind: 36 mph (32 kts) from 320° at 36 min
2017-03-22 08:54 41 25 31 52 280° 15 25 29.90 29.89 0 None
2017-03-22 07:54 41 22 31 46 300° 15 25 29.89 29.88 0 6-hr Min Temp (8am): 37.0°F
6-hr Max Temp (8am): 44.1°F
2017-03-22 06:54 40 26 30 57 300° 14 21 29.87 29.86 0 None
2017-03-22 05:54 41 31 36 67 290° 8 - 29.84 29.84 0 None
2017-03-22 04:54 42 31 39 64 240° 5 - 29.82 29.81 0 None
2017-03-22 03:54 40 33 - 76 - Calm - 29.82 29.81 0 None
2017-03-22 02:54 38 31 - 75 - Calm - 29.82 29.82 0 None
2017-03-22 01:54 42 31 - 64 - Calm - 29.85 29.85 0 6-hr Min Temp (2am): 42.1°F
6-hr Max Temp (2am): 46.9°F
2017-03-22 00:54 44 33 - 65 - Calm - 29.85 29.85 0 24-hr Min Temp (1am): 39.0°F
24-hr Max Temp (1am): 53.1°F

Support USWX by starting your Amazon purchase here.